createdAt,value
2022-11-22T00:00:20.145Z,69.28
2022-11-22T00:02:46.670Z,69.24
2022-11-22T00:05:13.524Z,68.79
2022-11-22T00:07:40.288Z,69.25
2022-11-22T00:10:08.193Z,69.01
2022-11-22T00:12:34.717Z,68.89
2022-11-22T00:15:01.579Z,68.99
2022-11-22T00:17:28.248Z,69.04
2022-11-22T00:19:54.752Z,68.75
2022-11-22T00:22:21.203Z,68.71
2022-11-22T00:24:47.797Z,69.89
2022-11-22T00:27:14.220Z,69.83
2022-11-22T00:29:40.610Z,69.59
2022-11-22T00:32:07.037Z,69.17
2022-11-22T00:34:33.469Z,69.38
2022-11-22T00:37:00.006Z,69.01
2022-11-22T00:39:26.438Z,69.13
2022-11-22T00:41:52.860Z,69.42
2022-11-22T00:44:19.283Z,68.70
2022-11-22T00:46:45.668Z,68.53
2022-11-22T00:49:12.091Z,68.03
2022-11-22T00:51:38.562Z,68.27
2022-11-22T00:54:05.115Z,68.50
2022-11-22T00:56:32.113Z,68.00
2022-11-22T00:58:58.855Z,68.17
2022-11-22T01:01:25.412Z,68.09
2022-11-22T01:03:51.911Z,69.28
2022-11-22T01:06:18.362Z,69.88
2022-11-22T01:08:45.121Z,69.14
2022-11-22T01:11:13.021Z,68.66
2022-11-22T01:13:39.501Z,69.92
2022-11-22T01:16:08.625Z,69.70
2022-11-22T01:18:35.077Z,69.35
2022-11-22T01:21:02.370Z,69.67
2022-11-22T01:23:29.009Z,69.23
2022-11-22T01:25:56.957Z,69.54
2022-11-22T01:28:23.924Z,70.11
2022-11-22T01:30:51.675Z,69.88
2022-11-22T01:33:18.943Z,69.61
2022-11-22T01:35:45.451Z,69.19
2022-11-22T01:38:12.008Z,68.79
2022-11-22T01:40:38.441Z,68.83
2022-11-22T01:43:16.141Z,69.15
2022-11-22T01:45:45.260Z,69.19
2022-11-22T01:48:11.605Z,69.95
2022-11-22T01:50:43.106Z,69.17
2022-11-22T01:53:13.479Z,69.56
2022-11-22T01:55:41.139Z,68.96
2022-11-22T01:58:10.009Z,69.28
2022-11-22T02:00:38.749Z,69.17
2022-11-22T02:03:09.453Z,68.58
2022-11-22T02:09:23.401Z,69.04
2022-11-22T02:11:53.814Z,68.69
2022-11-22T02:14:24.871Z,69.52
2022-11-22T02:16:51.458Z,69.23
2022-11-22T02:19:28.217Z,69.18
2022-11-22T02:22:01.392Z,69.99
2022-11-22T02:24:46.685Z,69.45
2022-11-22T02:27:13.158Z,69.58
2022-11-22T02:29:40.014Z,69.77
2022-11-22T02:32:06.483Z,70.02
2022-11-22T02:34:47.218Z,70.10
2022-11-22T02:37:20.465Z,70.43
2022-11-22T02:39:48.564Z,70.42
2022-11-22T02:42:15.098Z,70.68
2022-11-22T02:44:42.237Z,69.76
2022-11-22T02:47:08.822Z,70.00
2022-11-22T02:49:35.326Z,70.19
2022-11-22T02:52:02.166Z,70.46
2022-11-22T02:54:28.605Z,70.48
2022-11-22T02:56:55.011Z,69.96
2022-11-22T02:59:21.508Z,69.70
2022-11-22T03:01:48.897Z,70.17
2022-11-22T03:04:25.041Z,71.02
2022-11-22T03:06:56.626Z,70.16
2022-11-22T03:09:24.430Z,70.60
2022-11-22T03:11:51.861Z,70.01
2022-11-22T03:14:18.445Z,70.48
2022-11-22T03:16:46.266Z,70.32
2022-11-22T03:19:13.464Z,70.36
2022-11-22T03:21:42.118Z,71.41
2022-11-22T03:24:10.071Z,71.40
2022-11-22T03:26:37.076Z,71.24
2022-11-22T03:29:03.772Z,71.28
2022-11-22T03:31:30.420Z,70.36
2022-11-22T03:33:57.021Z,71.00
2022-11-22T03:36:23.487Z,71.17
2022-11-22T03:38:50.607Z,70.92
2022-11-22T03:41:17.092Z,71.52
2022-11-22T03:43:43.529Z,71.64
2022-11-22T03:46:19.459Z,71.01
2022-11-22T03:48:46.676Z,71.68
2022-11-22T03:51:13.429Z,72.05
2022-11-22T03:53:39.968Z,71.26
2022-11-22T03:56:07.026Z,71.02
2022-11-22T03:58:33.692Z,70.90
2022-11-22T04:01:00.670Z,72.00
2022-11-22T04:03:27.646Z,71.03
2022-11-22T04:05:54.343Z,70.74
2022-11-22T04:08:20.899Z,71.26
2022-11-22T04:10:52.010Z,70.69
2022-11-22T04:13:18.826Z,70.45
2022-11-22T04:15:45.351Z,71.97
2022-11-22T04:18:13.335Z,71.77
2022-11-22T04:20:59.120Z,72.17
2022-11-22T04:23:32.206Z,71.81
2022-11-22T04:26:00.172Z,71.49
2022-11-22T04:28:40.918Z,72.16
2022-11-22T04:31:32.313Z,71.25
2022-11-22T04:33:58.704Z,71.35
2022-11-22T04:36:25.118Z,70.90
2022-11-22T04:38:52.173Z,71.03
2022-11-22T04:41:18.692Z,71.18
2022-11-22T04:44:03.982Z,71.97
2022-11-22T04:46:31.494Z,72.15
2022-11-22T04:48:58.017Z,72.29
2022-11-22T04:51:42.846Z,71.92
2022-11-22T04:54:09.405Z,71.92
2022-11-22T04:56:35.912Z,72.34
2022-11-22T04:59:02.361Z,72.38
2022-11-22T05:01:28.881Z,73.00
2022-11-22T05:03:55.471Z,72.68
2022-11-22T05:06:21.942Z,72.41
2022-11-22T05:08:48.350Z,71.64
2022-11-22T05:11:14.954Z,71.92
2022-11-22T05:13:42.507Z,72.91
2022-11-22T05:16:11.793Z,73.59
2022-11-22T05:18:38.980Z,74.34
2022-11-22T05:21:14.848Z,74.14
2022-11-22T05:23:56.507Z,74.54
2022-11-22T05:26:31.617Z,74.26
2022-11-22T05:28:59.042Z,74.66
2022-11-22T05:31:27.488Z,74.15
2022-11-22T05:33:56.026Z,73.80
2022-11-22T05:36:23.452Z,74.21
2022-11-22T05:38:50.259Z,73.94
2022-11-22T05:41:17.371Z,73.66
2022-11-22T05:43:44.166Z,74.29
2022-11-22T05:46:19.620Z,75.39
2022-11-22T05:48:50.231Z,74.70
2022-11-22T05:51:19.747Z,74.27
2022-11-22T05:53:47.017Z,74.09
2022-11-22T05:56:22.864Z,73.74
2022-11-22T05:58:50.668Z,73.33
2022-11-22T06:01:19.591Z,72.72
2022-11-22T06:03:46.533Z,72.65
2022-11-22T06:06:13.598Z,72.74
2022-11-22T06:08:41.533Z,72.72
2022-11-22T06:11:12.900Z,73.01
2022-11-22T06:13:40.144Z,72.58
2022-11-22T06:16:08.705Z,72.90
2022-11-22T06:18:35.562Z,73.06
2022-11-22T06:21:05.982Z,73.97
2022-11-22T06:23:33.400Z,73.68
2022-11-22T06:26:01.952Z,73.64
2022-11-22T06:28:33.950Z,73.56
2022-11-22T06:31:12.692Z,73.64
2022-11-22T06:33:40.008Z,72.88
2022-11-22T06:36:11.992Z,72.96
2022-11-22T06:38:40.104Z,73.71
2022-11-22T06:41:09.392Z,73.31
2022-11-22T06:43:37.434Z,73.40
2022-11-22T06:46:05.626Z,72.88
2022-11-22T06:48:35.073Z,73.47
2022-11-22T06:51:03.157Z,73.15
2022-11-22T06:53:46.691Z,73.27
2022-11-22T06:56:24.986Z,72.87
2022-11-22T06:58:52.936Z,73.56
2022-11-22T07:01:27.533Z,73.25
2022-11-22T07:03:58.358Z,72.65
2022-11-22T07:06:37.282Z,72.12
2022-11-22T07:09:06.927Z,71.87
2022-11-22T07:11:35.210Z,72.11
2022-11-22T07:14:07.721Z,72.13
2022-11-22T07:16:36.195Z,72.25
2022-11-22T07:19:02.678Z,71.74
2022-11-22T07:21:29.105Z,72.15
2022-11-22T07:23:56.194Z,72.05
2022-11-22T07:26:25.851Z,71.41
2022-11-22T07:28:52.362Z,71.90
2022-11-22T07:31:19.099Z,71.92
2022-11-22T07:33:45.967Z,72.21
2022-11-22T07:36:12.343Z,72.10
2022-11-22T07:38:39.235Z,72.45
2022-11-22T07:41:06.777Z,72.15
2022-11-22T07:43:33.592Z,72.82
2022-11-22T07:46:01.428Z,71.85
2022-11-22T07:48:27.877Z,72.52
2022-11-22T07:50:54.450Z,72.73
2022-11-22T07:53:21.277Z,72.34
2022-11-22T07:55:47.912Z,72.32
2022-11-22T07:58:14.381Z,72.06
2022-11-22T08:00:40.955Z,72.55
2022-11-22T08:03:08.314Z,71.86
2022-11-22T08:05:34.742Z,71.97
2022-11-22T08:08:01.355Z,71.51
2022-11-22T08:10:27.845Z,72.45
2022-11-22T08:12:54.268Z,72.73
2022-11-22T08:15:20.841Z,72.27
2022-11-22T08:17:47.555Z,72.37
2022-11-22T08:20:14.360Z,72.40
2022-11-22T08:22:41.106Z,72.42
2022-11-22T08:25:12.606Z,73.21
2022-11-22T08:27:43.025Z,71.90
2022-11-22T08:30:11.220Z,71.78
2022-11-22T08:32:38.436Z,72.65
2022-11-22T08:35:05.638Z,72.78
2022-11-22T08:37:32.249Z,72.97
2022-11-22T08:39:58.741Z,72.79
2022-11-22T08:42:25.194Z,72.75
2022-11-22T08:44:51.670Z,73.31
2022-11-22T08:47:18.305Z,73.27
2022-11-22T08:49:44.909Z,72.56
2022-11-22T08:52:11.352Z,72.38
2022-11-22T08:54:38.352Z,73.43
2022-11-22T08:57:05.253Z,72.72
2022-11-22T08:59:32.189Z,72.71
2022-11-22T09:01:59.300Z,73.15
2022-11-22T09:04:25.906Z,72.49
2022-11-22T09:09:38.799Z,71.76
2022-11-22T09:12:05.745Z,71.30
2022-11-22T09:14:32.183Z,71.48
2022-11-22T09:16:58.645Z,70.94
2022-11-22T09:19:25.189Z,72.26
2022-11-22T09:21:51.659Z,71.64
2022-11-22T09:24:18.085Z,70.87
2022-11-22T09:26:44.491Z,70.71
2022-11-22T09:29:11.060Z,70.67
2022-11-22T09:31:37.673Z,70.61
2022-11-22T09:34:04.121Z,71.03
2022-11-22T09:36:30.985Z,70.70
2022-11-22T09:38:57.491Z,70.77
2022-11-22T09:41:51.273Z,71.44
2022-11-22T09:44:26.763Z,72.05
2022-11-22T09:46:59.217Z,72.12
2022-11-22T09:49:47.186Z,72.19
2022-11-22T09:52:32.311Z,70.99
2022-11-22T09:55:26.618Z,70.79
2022-11-22T09:58:05.956Z,70.61
2022-11-22T10:00:33.119Z,70.21
2022-11-22T10:03:14.483Z,70.73
2022-11-22T10:05:56.350Z,72.08
2022-11-22T10:08:37.499Z,72.03
2022-11-22T10:11:36.085Z,71.37
2022-11-22T10:14:12.240Z,70.93
2022-11-22T10:16:44.345Z,72.46
2022-11-22T10:19:14.780Z,72.03
2022-11-22T10:21:42.419Z,71.55
2022-11-22T10:24:16.739Z,72.15
2022-11-22T10:26:43.272Z,71.37
2022-11-22T10:29:27.296Z,71.03
2022-11-22T10:32:08.430Z,70.59
2022-11-22T10:34:40.597Z,71.45
2022-11-22T10:37:20.373Z,71.17
2022-11-22T10:39:52.608Z,71.06
2022-11-22T10:42:42.214Z,71.21
2022-11-22T10:45:29.662Z,71.93
2022-11-22T10:48:34.578Z,71.00
2022-11-22T10:51:16.022Z,71.02
2022-11-22T10:54:03.847Z,71.39
2022-11-22T10:56:39.184Z,70.96
2022-11-22T10:59:36.084Z,71.37
2022-11-22T11:02:10.212Z,72.31
2022-11-22T11:04:39.901Z,72.71
2022-11-22T11:07:12.817Z,72.32
2022-11-22T11:12:47.188Z,71.62
2022-11-22T11:15:32.638Z,71.84
2022-11-22T11:18:02.863Z,71.42
2022-11-22T11:20:37.117Z,71.36
2022-11-22T11:23:18.945Z,71.96
2022-11-22T11:25:47.181Z,71.86
2022-11-22T11:28:19.049Z,71.87
2022-11-22T11:30:55.726Z,71.21
2022-11-22T11:33:41.677Z,71.08
2022-11-22T11:36:16.093Z,71.41
2022-11-22T11:38:42.480Z,71.08
2022-11-22T11:41:20.317Z,70.94
2022-11-22T11:43:47.691Z,71.20
2022-11-22T11:46:22.816Z,71.28
2022-11-22T11:48:54.813Z,71.14
2022-11-22T11:51:41.448Z,71.57
2022-11-22T11:54:21.658Z,71.30
2022-11-22T11:56:57.889Z,71.77
2022-11-22T11:59:41.870Z,71.63
2022-11-22T12:02:21.707Z,70.86
2022-11-22T12:04:59.368Z,70.99
2022-11-22T12:07:35.872Z,71.65
2022-11-22T12:10:24.207Z,71.71
2022-11-22T12:13:00.201Z,71.90
2022-11-22T12:15:44.106Z,71.60
2022-11-22T12:18:30.774Z,70.97
2022-11-22T12:21:13.723Z,70.85
2022-11-22T12:23:51.030Z,70.86
2022-11-22T12:26:18.444Z,71.69
2022-11-22T12:28:45.139Z,70.49
2022-11-22T12:31:20.705Z,71.14
2022-11-22T12:34:02.366Z,71.13
2022-11-22T12:36:47.548Z,71.54
2022-11-22T12:39:35.329Z,71.95
2022-11-22T12:42:23.905Z,71.87
2022-11-22T12:45:20.260Z,71.37
2022-11-22T12:47:48.281Z,71.08
2022-11-22T12:50:30.111Z,70.55
2022-11-22T12:53:05.161Z,70.84
2022-11-22T12:55:44.805Z,71.76
2022-11-22T12:58:20.902Z,71.95
2022-11-22T13:01:17.122Z,71.04
2022-11-22T13:04:25.855Z,71.32
2022-11-22T13:07:01.915Z,71.08
2022-11-22T13:09:35.031Z,71.40
2022-11-22T13:12:15.088Z,71.41
2022-11-22T13:14:55.265Z,71.31
2022-11-22T13:17:24.488Z,70.97
2022-11-22T13:20:05.853Z,71.37
2022-11-22T13:22:59.766Z,71.02
2022-11-22T13:25:38.075Z,70.96
2022-11-22T13:28:23.857Z,71.35
2022-11-22T13:31:12.115Z,70.79
2022-11-22T13:34:02.370Z,70.19
2022-11-22T13:36:31.809Z,71.24
2022-11-22T13:39:05.535Z,71.57
2022-11-22T13:41:34.814Z,71.51
2022-11-22T13:44:23.226Z,71.02
2022-11-22T13:46:49.570Z,71.22
2022-11-22T13:49:38.254Z,71.05
2022-11-22T13:52:16.795Z,71.54
2022-11-22T13:54:58.239Z,71.33
2022-11-22T13:57:44.996Z,71.67
2022-11-22T14:00:11.371Z,71.50
2022-11-22T14:02:48.021Z,71.65
2022-11-22T14:05:41.255Z,71.03
2022-11-22T14:08:36.268Z,71.06
2022-11-22T14:11:24.223Z,71.42
2022-11-22T14:14:04.404Z,70.48
2022-11-22T14:16:44.076Z,70.57
2022-11-22T14:19:25.500Z,70.42
2022-11-22T14:22:03.538Z,71.21
2022-11-22T14:24:36.532Z,71.26
2022-11-22T14:27:26.881Z,71.63
2022-11-22T14:30:36.810Z,71.43
2022-11-22T14:33:15.426Z,71.52
2022-11-22T14:36:06.740Z,71.63
2022-11-22T14:38:35.558Z,71.22
2022-11-22T14:41:40.575Z,71.13
2022-11-22T14:44:09.893Z,70.40
2022-11-22T14:46:53.892Z,70.99
2022-11-22T14:49:23.867Z,71.21
2022-11-22T14:51:55.992Z,71.95
2022-11-22T14:54:28.361Z,71.72
2022-11-22T14:57:02.824Z,71.61
2022-11-22T15:00:02.675Z,71.70
2022-11-22T15:02:44.393Z,70.75
2022-11-22T15:09:13.159Z,70.98
2022-11-22T15:09:17.686Z,71.31
2022-11-22T15:11:20.917Z,71.33
2022-11-22T15:14:24.523Z,71.81
2022-11-22T15:59:43.150Z,72.24
2022-11-22T16:02:16.090Z,72.20
2022-11-22T16:06:05.473Z,72.49
2022-11-22T16:07:49.026Z,72.42
2022-11-22T16:10:37.115Z,73.30
2022-11-22T16:13:24.237Z,72.22
2022-11-22T16:16:10.690Z,72.25
2022-11-22T16:18:38.730Z,72.91
2022-11-22T16:21:19.852Z,72.92
2022-11-22T16:23:47.090Z,72.54
2022-11-22T16:26:29.285Z,73.04
2022-11-22T16:29:10.346Z,72.76
2022-11-22T16:31:39.030Z,72.51
2022-11-22T16:34:12.761Z,72.50
2022-11-22T16:36:39.431Z,73.34
2022-11-22T16:39:05.940Z,72.63
2022-11-22T16:41:34.387Z,72.05
2022-11-22T16:44:04.068Z,72.58
2022-11-22T16:46:30.461Z,72.41
2022-11-22T16:48:57.050Z,71.58
2022-11-22T16:51:28.041Z,71.58
2022-11-22T16:53:58.594Z,72.51
2022-11-22T16:56:29.250Z,72.24
2022-11-22T16:58:57.527Z,72.16
2022-11-22T17:01:26.552Z,72.04
2022-11-22T17:03:55.628Z,71.46
2022-11-22T17:06:24.809Z,71.58
2022-11-22T17:08:54.239Z,72.72
2022-11-22T17:11:23.395Z,72.17
2022-11-22T17:13:50.049Z,72.29
2022-11-22T17:16:17.876Z,71.82
2022-11-22T17:18:45.847Z,71.81
2022-11-22T17:21:32.910Z,71.66
2022-11-22T17:24:20.966Z,71.71
2022-11-22T17:26:47.401Z,71.60
2022-11-22T17:29:42.897Z,70.92
2022-11-22T17:32:00.685Z,72.07
2022-11-22T17:34:27.258Z,72.22
2022-11-22T17:36:53.708Z,71.88
2022-11-22T17:39:20.190Z,72.05
2022-11-22T17:41:48.802Z,71.50
2022-11-22T17:44:17.815Z,74.08
2022-11-22T17:46:44.380Z,73.66
2022-11-22T17:49:16.165Z,72.35
2022-11-22T17:51:43.315Z,71.98
2022-11-22T17:54:09.988Z,72.26
2022-11-22T17:56:37.486Z,72.49
2022-11-22T17:59:05.043Z,73.01
2022-11-22T18:01:31.619Z,72.67
2022-11-22T18:03:58.090Z,72.24
2022-11-22T18:06:26.232Z,71.64
2022-11-22T18:08:52.750Z,72.15
2022-11-22T18:11:19.198Z,71.96
2022-11-22T18:13:45.708Z,72.61
2022-11-22T18:16:14.720Z,72.66
2022-11-22T18:18:58.018Z,72.17
2022-11-22T18:21:26.075Z,73.17
2022-11-22T18:23:52.512Z,72.81
2022-11-22T18:31:53.228Z,73.13
2022-11-22T18:34:20.642Z,72.51
2022-11-22T18:37:04.083Z,72.54
2022-11-22T18:39:37.092Z,72.54
2022-11-22T18:42:06.088Z,71.70
2022-11-22T18:44:32.762Z,72.36
2022-11-22T18:46:59.276Z,72.62
2022-11-22T18:49:25.765Z,72.27
2022-11-22T18:51:52.200Z,72.84
2022-11-22T18:54:19.748Z,72.52
2022-11-22T18:56:46.172Z,72.39
2022-11-22T18:59:12.916Z,72.82
2022-11-22T19:01:40.544Z,73.00
2022-11-22T19:04:07.533Z,72.73
2022-11-22T19:06:34.031Z,72.41
2022-11-22T19:09:01.046Z,72.24
2022-11-22T19:11:29.506Z,72.81
2022-11-22T19:13:55.973Z,72.47
2022-11-22T19:16:22.867Z,72.49
2022-11-22T19:18:50.087Z,72.92
2022-11-22T19:21:18.956Z,72.91
2022-11-22T19:23:46.838Z,73.85
2022-11-22T19:26:19.342Z,73.58
2022-11-22T19:28:48.020Z,73.74
2022-11-22T19:31:17.493Z,73.93
2022-11-22T19:33:44.386Z,73.29
2022-11-22T19:36:13.945Z,73.55
2022-11-22T19:38:41.108Z,72.65
2022-11-22T19:41:12.780Z,72.35
2022-11-22T19:43:39.591Z,73.20
2022-11-22T19:46:06.718Z,73.62
2022-11-22T19:48:35.288Z,72.63
2022-11-22T19:51:08.868Z,72.14
2022-11-22T19:53:35.671Z,72.61
2022-11-22T19:56:07.112Z,72.92
2022-11-22T19:58:33.815Z,72.65
2022-11-22T20:01:08.103Z,72.42
2022-11-22T20:03:35.828Z,72.96
2022-11-22T20:06:03.922Z,71.92
2022-11-22T20:08:30.997Z,72.43
2022-11-22T20:11:08.907Z,72.66
2022-11-22T20:13:41.560Z,72.23
2022-11-22T20:16:10.952Z,72.31
2022-11-22T20:18:37.785Z,72.15
2022-11-22T20:21:05.637Z,72.30
2022-11-22T20:23:32.382Z,71.63
2022-11-22T20:26:03.657Z,71.96
2022-11-22T20:28:30.192Z,72.12
2022-11-22T20:31:13.591Z,72.31
2022-11-22T20:33:42.858Z,72.94
2022-11-22T20:36:14.887Z,73.38
2022-11-22T20:38:43.122Z,72.74
2022-11-22T20:41:11.392Z,72.49
2022-11-22T20:43:38.136Z,72.36
2022-11-22T20:46:13.847Z,71.98
2022-11-22T20:48:42.311Z,72.30
2022-11-22T20:51:11.820Z,72.16
2022-11-22T20:53:38.671Z,72.10
2022-11-22T20:56:05.624Z,72.20
2022-11-22T20:58:32.606Z,72.14
2022-11-22T21:00:59.405Z,72.10
2022-11-22T21:03:28.094Z,72.43
2022-11-22T21:05:55.384Z,72.40
2022-11-22T21:08:22.988Z,72.76
2022-11-22T21:10:49.579Z,72.38
2022-11-22T21:13:16.414Z,71.92
2022-11-22T21:15:43.323Z,72.83
2022-11-22T21:18:25.365Z,72.71
2022-11-22T21:20:52.541Z,72.44
2022-11-22T21:23:19.068Z,72.22
2022-11-22T21:25:46.135Z,72.64
2022-11-22T21:28:12.573Z,72.57
2022-11-22T21:30:39.037Z,71.99
2022-11-22T21:33:05.644Z,71.83
2022-11-22T21:35:32.047Z,73.35
2022-11-22T21:37:58.547Z,73.43
2022-11-22T21:40:25.182Z,73.00
2022-11-22T21:42:51.579Z,73.24
2022-11-22T21:45:18.024Z,73.81
2022-11-22T21:47:47.297Z,73.67
2022-11-22T21:50:15.257Z,73.10
2022-11-22T21:52:42.322Z,73.75
2022-11-22T21:55:09.686Z,73.44
2022-11-22T21:57:36.133Z,73.24
2022-11-22T22:00:06.051Z,73.86
2022-11-22T22:02:32.955Z,74.59
2022-11-22T22:04:59.534Z,73.22
2022-11-22T22:07:45.107Z,73.79
2022-11-22T22:10:13.279Z,73.03
2022-11-22T22:12:40.848Z,73.08
2022-11-22T22:15:11.951Z,72.45
2022-11-22T22:17:38.553Z,73.04
2022-11-22T22:20:05.644Z,72.79
2022-11-22T22:22:35.486Z,73.44
2022-11-22T22:25:01.881Z,73.27
2022-11-22T22:27:31.038Z,72.78
2022-11-22T22:29:58.368Z,73.79
2022-11-22T22:32:25.587Z,72.91
2022-11-22T22:34:52.427Z,72.38
2022-11-22T22:37:19.062Z,73.68
2022-11-22T22:39:45.749Z,73.47
2022-11-22T22:42:12.244Z,73.14
2022-11-22T22:44:38.625Z,74.20
2022-11-22T22:47:05.014Z,73.47
2022-11-22T22:49:31.727Z,73.22
2022-11-22T22:51:58.244Z,72.90
2022-11-22T22:54:24.640Z,73.07
2022-11-22T22:56:51.200Z,73.45
2022-11-22T22:59:17.644Z,73.47
2022-11-22T23:01:44.177Z,73.03
2022-11-22T23:04:10.747Z,73.37
2022-11-22T23:06:38.954Z,73.58
2022-11-22T23:09:08.316Z,73.47
2022-11-22T23:11:54.609Z,73.69
2022-11-22T23:14:23.793Z,73.42
2022-11-22T23:16:55.918Z,73.54
2022-11-22T23:19:24.215Z,74.73
2022-11-22T23:21:50.728Z,74.51
2022-11-22T23:24:17.333Z,73.87
2022-11-22T23:26:44.242Z,73.85
2022-11-22T23:29:10.939Z,73.38
2022-11-22T23:31:37.433Z,73.96
2022-11-22T23:34:03.921Z,74.44
2022-11-22T23:36:30.588Z,74.04
2022-11-22T23:38:57.060Z,73.74
2022-11-22T23:41:24.812Z,74.29
2022-11-22T23:43:53.573Z,73.63
2022-11-22T23:46:20.975Z,73.94
2022-11-22T23:48:53.556Z,74.17
2022-11-22T23:51:20.635Z,74.16
2022-11-22T23:53:47.264Z,74.53
2022-11-22T23:56:21.356Z,73.95
2022-11-22T23:58:48.282Z,73.91
